createdAt,value
2023-05-10T00:03:42.362Z,101729.47
2023-05-10T00:08:45.221Z,101722.94
2023-05-10T00:13:53.198Z,101714.63
2023-05-10T00:18:56.000Z,101720.25
2023-05-10T00:23:58.633Z,101723.09
2023-05-10T00:29:04.656Z,101715.94
2023-05-10T00:34:07.228Z,101715.69
2023-05-10T00:39:09.840Z,101731.28
2023-05-10T00:44:12.556Z,101731.94
2023-05-10T00:49:15.497Z,101738.09
2023-05-10T00:54:18.227Z,101737.28
2023-05-10T00:59:24.846Z,101736.63
2023-05-10T01:04:29.582Z,101722.56
2023-05-10T01:09:34.544Z,101727.97
2023-05-10T01:14:37.779Z,101718.44
2023-05-10T01:19:40.739Z,101725.25
2023-05-10T01:25:12.523Z,101727.56
2023-05-10T01:30:47.880Z,101732.06
2023-05-10T01:35:56.816Z,101723.81
2023-05-10T01:41:42.904Z,101721.22
2023-05-10T01:46:52.795Z,101721.31
2023-05-10T01:52:00.892Z,101724.44
2023-05-10T01:57:11.128Z,101722.97
2023-05-10T02:02:16.350Z,101708.00
2023-05-10T02:07:21.506Z,101721.78
2023-05-10T02:12:25.543Z,101723.31
2023-05-10T02:17:30.339Z,101727.38
2023-05-10T02:22:34.257Z,101712.84
2023-05-10T02:27:42.875Z,101702.56
2023-05-10T02:32:46.556Z,101683.72
2023-05-10T02:37:49.719Z,101695.50
2023-05-10T02:42:57.757Z,101679.88
2023-05-10T02:48:01.648Z,101683.00
2023-05-10T02:53:20.460Z,101685.09
2023-05-10T02:58:23.525Z,101679.50
2023-05-10T03:03:26.034Z,101677.09
2023-05-10T03:08:30.780Z,101670.84
2023-05-10T03:13:40.532Z,101693.84
2023-05-10T03:19:14.178Z,101687.13
2023-05-10T03:24:20.736Z,101692.16
2023-05-10T03:29:27.672Z,101694.00
2023-05-10T03:34:32.768Z,101688.56
2023-05-10T03:39:35.639Z,101698.63
2023-05-10T03:44:41.544Z,101703.47
2023-05-10T03:49:44.977Z,101697.66
2023-05-10T03:54:48.746Z,101701.31
2023-05-10T03:59:51.848Z,101687.59
2023-05-10T04:04:57.286Z,101688.31
2023-05-10T04:10:00.663Z,101683.53
2023-05-10T04:15:03.402Z,101690.44
2023-05-10T04:20:07.915Z,101687.59
2023-05-10T04:25:11.017Z,101676.13
2023-05-10T04:30:13.919Z,101676.25
2023-05-10T04:35:16.931Z,101707.50
2023-05-10T04:40:19.562Z,101716.13
2023-05-10T04:45:23.061Z,101717.28
2023-05-10T04:50:26.689Z,101693.28
2023-05-10T04:55:29.365Z,101675.63
2023-05-10T05:00:34.422Z,101699.97
2023-05-10T05:05:40.637Z,101705.34
2023-05-10T05:10:43.794Z,101687.56
2023-05-10T05:15:48.095Z,101674.25
2023-05-10T05:20:50.998Z,101680.22
2023-05-10T05:26:00.399Z,101674.31
2023-05-10T05:31:27.533Z,101665.22
2023-05-10T05:36:30.204Z,101667.03
2023-05-10T05:41:42.139Z,101673.63
2023-05-10T05:46:50.606Z,101683.13
2023-05-10T05:51:53.452Z,101681.41
2023-05-10T05:57:06.199Z,101673.09
2023-05-10T06:02:10.994Z,101686.13
2023-05-10T06:07:13.730Z,101698.47
2023-05-10T06:12:16.738Z,101687.88
2023-05-10T06:17:19.518Z,101692.66
2023-05-10T06:22:24.548Z,101697.50
2023-05-10T06:27:27.782Z,101681.69
2023-05-10T06:32:31.148Z,101680.47
2023-05-10T06:37:34.152Z,101681.25
2023-05-10T06:42:37.057Z,101679.66
2023-05-10T06:47:39.786Z,101683.84
2023-05-10T06:52:44.082Z,101688.34
2023-05-10T06:57:48.870Z,101690.97
2023-05-10T07:02:54.065Z,101702.50
2023-05-10T07:07:58.765Z,101702.66
2023-05-10T07:13:04.342Z,101702.34
2023-05-10T07:18:07.939Z,101689.94
2023-05-10T07:23:10.763Z,101691.59
2023-05-10T07:28:14.889Z,101697.56
2023-05-10T07:33:18.011Z,101698.59
2023-05-10T07:38:20.741Z,101711.31
2023-05-10T07:43:23.613Z,101690.06
2023-05-10T07:48:26.430Z,101684.97
2023-05-10T07:53:29.140Z,101681.00
2023-05-10T07:58:34.697Z,101672.38
2023-05-10T08:03:38.507Z,101682.19
2023-05-10T08:08:41.723Z,101681.22
2023-05-10T08:13:45.761Z,101677.19
2023-05-10T08:18:50.523Z,101674.72
2023-05-10T08:23:53.663Z,101668.09
2023-05-10T08:28:56.636Z,101650.00
2023-05-10T08:33:59.520Z,101648.53
2023-05-10T08:39:02.104Z,101637.22
2023-05-10T08:44:14.388Z,101641.00
2023-05-10T08:49:21.557Z,101624.50
2023-05-10T08:54:29.208Z,101620.81
2023-05-10T08:59:34.845Z,101609.91
2023-05-10T09:09:58.653Z,101605.06
2023-05-10T09:15:10.704Z,101603.69
2023-05-10T09:20:16.413Z,101590.88
2023-05-10T09:25:28.502Z,101585.16
2023-05-10T09:30:32.434Z,101586.06
2023-05-10T09:35:38.639Z,101579.88
2023-05-10T09:40:59.060Z,101588.75
2023-05-10T09:46:11.256Z,101583.44
2023-05-10T09:51:24.812Z,101586.47
2023-05-10T09:56:41.768Z,101575.63
2023-05-10T10:01:52.693Z,101575.38
2023-05-10T10:07:05.971Z,101584.78
2023-05-10T10:12:09.987Z,101584.81
2023-05-10T10:17:14.210Z,101595.19
2023-05-10T10:22:19.797Z,101591.34
2023-05-10T10:27:34.580Z,101579.69
2023-05-10T10:33:05.615Z,101566.97
2023-05-10T10:38:14.499Z,101565.19
2023-05-10T10:43:28.494Z,101554.47
2023-05-10T10:48:33.606Z,101563.56
2023-05-10T10:53:40.530Z,101546.06
2023-05-10T10:58:51.231Z,101535.53
2023-05-10T11:04:02.941Z,101540.47
2023-05-10T11:09:15.200Z,101543.88
2023-05-10T11:14:25.956Z,101534.03
2023-05-10T11:19:31.160Z,101525.50
2023-05-10T11:24:37.112Z,101522.00
2023-05-10T11:29:52.517Z,101527.03
2023-05-10T11:34:56.575Z,101522.25
2023-05-10T11:40:00.644Z,101504.66
2023-05-10T11:45:16.409Z,101502.94
2023-05-10T11:50:36.340Z,101511.16
2023-05-10T11:55:40.962Z,101523.75
2023-05-10T12:00:49.615Z,101524.94
2023-05-10T12:05:53.312Z,101516.84
2023-05-10T12:11:09.693Z,101520.06
2023-05-10T12:16:24.415Z,101521.63
2023-05-10T12:21:28.904Z,101521.66
2023-05-10T12:26:31.882Z,101521.38
2023-05-10T12:31:34.420Z,101523.28
2023-05-10T12:36:40.114Z,101533.28
2023-05-10T12:41:43.627Z,101530.13
2023-05-10T12:46:46.361Z,101529.66
2023-05-10T12:51:48.979Z,101518.97
2023-05-10T12:56:52.123Z,101515.31
2023-05-10T13:01:54.943Z,101513.34
2023-05-10T13:07:00.134Z,101506.13
2023-05-10T13:12:10.151Z,101508.56
2023-05-10T13:17:16.100Z,101507.53
2023-05-10T13:22:32.523Z,101507.91
2023-05-10T13:27:42.160Z,101500.31
2023-05-10T13:32:53.059Z,101524.13
2023-05-10T13:37:58.815Z,101520.88
2023-05-10T13:43:03.368Z,101517.34
2023-05-10T13:48:07.154Z,101520.72
2023-05-10T13:53:09.758Z,101512.56
2023-05-10T13:58:18.255Z,101504.97
2023-05-10T14:03:21.120Z,101508.22
2023-05-10T14:08:28.447Z,101528.31
2023-05-10T14:13:31.292Z,101529.72
2023-05-10T14:18:36.968Z,101528.00
2023-05-10T14:23:40.005Z,101528.84
2023-05-10T14:28:44.862Z,101532.00
2023-05-10T14:33:50.400Z,101524.28
2023-05-10T14:38:52.978Z,101533.56
2023-05-10T14:43:55.461Z,101518.81
2023-05-10T14:48:59.077Z,101540.53
2023-05-10T14:54:02.045Z,101536.19
2023-05-10T14:59:05.373Z,101536.88
2023-05-10T15:04:08.532Z,101539.47
2023-05-10T15:09:11.722Z,101541.19
2023-05-10T15:14:14.358Z,101533.59
2023-05-10T15:19:17.778Z,101529.81
2023-05-10T15:24:20.644Z,101532.25
2023-05-10T15:29:23.689Z,101512.41
2023-05-10T15:34:26.703Z,101525.53
2023-05-10T15:39:37.264Z,101528.16
2023-05-10T15:44:42.248Z,101533.72
2023-05-10T15:49:46.542Z,101528.00
2023-05-10T16:00:19.779Z,101536.09
2023-05-10T16:05:25.108Z,101544.00
2023-05-10T16:10:34.196Z,101534.97
2023-05-10T16:15:39.218Z,101541.19
2023-05-10T16:20:45.278Z,101545.16
2023-05-10T16:25:48.109Z,101545.22
2023-05-10T16:30:52.346Z,101556.03
2023-05-10T16:35:55.073Z,101567.72
2023-05-10T16:40:57.846Z,101561.13
2023-05-10T16:46:00.580Z,101550.69
2023-05-10T16:51:04.768Z,101565.28
2023-05-10T16:56:07.768Z,101559.91
2023-05-10T17:01:13.094Z,101573.63
2023-05-10T17:06:15.838Z,101574.06
2023-05-10T17:11:20.243Z,101585.25
2023-05-10T17:16:22.916Z,101601.78
2023-05-10T17:21:25.748Z,101606.56
2023-05-10T17:26:30.249Z,101603.72
2023-05-10T17:31:33.493Z,101601.84
2023-05-10T17:36:36.463Z,101604.75
2023-05-10T17:41:42.419Z,101609.94
2023-05-10T17:46:45.116Z,101599.59
2023-05-10T17:51:48.688Z,101590.97
2023-05-10T17:56:53.774Z,101593.25
2023-05-10T18:01:56.885Z,101594.06
2023-05-10T18:07:01.930Z,101593.72
2023-05-10T18:12:05.009Z,101602.00
2023-05-10T18:17:07.952Z,101598.53
2023-05-10T18:22:11.024Z,101620.63
2023-05-10T18:27:13.874Z,101618.81
2023-05-10T18:32:18.843Z,101607.03
2023-05-10T18:37:21.568Z,101619.84
2023-05-10T18:42:26.980Z,101603.97
2023-05-10T18:47:29.648Z,101621.31
2023-05-10T18:52:32.491Z,101611.84
2023-05-10T18:57:41.705Z,101586.88
2023-05-10T19:02:44.583Z,101594.91
2023-05-10T19:07:47.507Z,101608.94
2023-05-10T19:12:50.129Z,101602.13
2023-05-10T19:17:52.906Z,101595.56
2023-05-10T19:23:09.260Z,101582.78
2023-05-10T19:28:13.053Z,101576.41
2023-05-10T19:33:15.916Z,101585.25
2023-05-10T19:38:28.164Z,101583.22
2023-05-10T19:43:34.256Z,101579.94
2023-05-10T19:48:37.432Z,101558.06
2023-05-10T19:53:44.325Z,101533.31
2023-05-10T19:58:46.994Z,101530.00
2023-05-10T20:03:49.628Z,101531.28
2023-05-10T20:08:52.265Z,101544.47
2023-05-10T20:13:55.585Z,101559.34
2023-05-10T20:18:58.278Z,101556.50
2023-05-10T20:24:01.374Z,101549.72
2023-05-10T20:29:04.048Z,101539.22
2023-05-10T20:34:06.774Z,101544.16
2023-05-10T20:39:09.887Z,101529.56
2023-05-10T20:44:12.491Z,101524.78
2023-05-10T20:49:15.045Z,101524.38
2023-05-10T20:54:17.628Z,101523.56
2023-05-10T20:59:20.364Z,101530.53
2023-05-10T21:04:23.125Z,101524.78
2023-05-10T21:09:25.630Z,101530.13
2023-05-10T21:14:31.484Z,101536.53
2023-05-10T21:19:34.142Z,101535.91
2023-05-10T21:24:42.088Z,101541.28
2023-05-10T21:29:44.657Z,101520.69
2023-05-10T21:34:47.148Z,101510.56
2023-05-10T21:39:50.213Z,101504.59
2023-05-10T21:44:53.132Z,101491.81
2023-05-10T21:49:55.646Z,101491.41
2023-05-10T21:54:58.126Z,101469.97
2023-05-10T22:00:00.608Z,101475.34
2023-05-10T22:05:03.922Z,101481.06
2023-05-10T22:10:09.108Z,101489.72
2023-05-10T22:15:12.234Z,101485.81
2023-05-10T22:20:15.098Z,101481.50
2023-05-10T22:25:17.799Z,101493.25
2023-05-10T22:30:20.756Z,101492.22
2023-05-10T22:35:26.071Z,101485.63
2023-05-10T22:40:28.615Z,101485.44
2023-05-10T22:45:31.470Z,101492.63
2023-05-10T22:50:34.254Z,101468.34
2023-05-10T22:55:36.898Z,101487.66
2023-05-10T23:00:39.851Z,101489.56
2023-05-10T23:05:42.454Z,101468.75
2023-05-10T23:10:44.942Z,101485.22
2023-05-10T23:15:47.456Z,101471.22
2023-05-10T23:20:49.952Z,101498.63
2023-05-10T23:25:52.568Z,101465.84
2023-05-10T23:30:56.987Z,101486.47
2023-05-10T23:41:26.781Z,101474.09
2023-05-10T23:46:30.832Z,101462.16
2023-05-10T23:51:33.672Z,101471.63
2023-05-10T23:56:36.439Z,101477.41
